sensor_id;sensor_type;location;lat;lon;timestamp;temperature;humidity
5846;DHT22;2949;50.778;7.094;2023-03-01T00:01:10;-3.00;99.90
5846;DHT22;2949;50.778;7.094;2023-03-01T00:03:36;-3.10;99.90
5846;DHT22;2949;50.778;7.094;2023-03-01T00:06:03;-3.30;99.90
5846;DHT22;2949;50.778;7.094;2023-03-01T00:08:29;-3.30;99.90
5846;DHT22;2949;50.778;7.094;2023-03-01T00:13:31;-3.50;99.90
5846;DHT22;2949;50.778;7.094;2023-03-01T00:15:57;-3.50;99.90
5846;DHT22;2949;50.778;7.094;2023-03-01T00:18:23;-3.50;99.90
5846;DHT22;2949;50.778;7.094;2023-03-01T00:20:52;-3.60;99.90
5846;DHT22;2949;50.778;7.094;2023-03-01T00:23:19;-3.60;99.90
5846;DHT22;2949;50.778;7.094;2023-03-01T00:25:44;-3.70;99.90
5846;DHT22;2949;50.778;7.094;2023-03-01T00:28:10;-3.70;99.90
5846;DHT22;2949;50.778;7.094;2023-03-01T00:30:36;-3.70;99.90
5846;DHT22;2949;50.778;7.094;2023-03-01T00:33:02;-3.80;99.90
5846;DHT22;2949;50.778;7.094;2023-03-01T00:35:27;-3.80;99.90
5846;DHT22;2949;50.778;7.094;2023-03-01T00:37:53;-3.70;99.90
5846;DHT22;2949;50.778;7.094;2023-03-01T00:40:18;-3.80;99.90
5846;DHT22;2949;50.778;7.094;2023-03-01T00:42:44;-3.80;99.90
5846;DHT22;2949;50.778;7.094;2023-03-01T00:45:09;-3.80;99.90
5846;DHT22;2949;50.778;7.094;2023-03-01T00:47:35;-3.90;99.90
5846;DHT22;2949;50.778;7.094;2023-03-01T00:50:00;-3.90;99.90
5846;DHT22;2949;50.778;7.094;2023-03-01T00:52:26;-3.90;99.90
5846;DHT22;2949;50.778;7.094;2023-03-01T00:54:53;-3.90;99.90
5846;DHT22;2949;50.778;7.094;2023-03-01T00:57:18;-3.90;99.90
5846;DHT22;2949;50.778;7.094;2023-03-01T00:59:44;-3.90;99.90
5846;DHT22;2949;50.778;7.094;2023-03-01T01:02:09;-3.90;99.90
5846;DHT22;2949;50.778;7.094;2023-03-01T01:04:35;-3.90;99.90
5846;DHT22;2949;50.778;7.094;2023-03-01T01:07:00;-3.90;99.90
5846;DHT22;2949;50.778;7.094;2023-03-01T01:09:26;-4.00;99.90
5846;DHT22;2949;50.778;7.094;2023-03-01T01:11:51;-3.90;99.90
5846;DHT22;2949;50.778;7.094;2023-03-01T01:14:18;-3.90;99.90
5846;DHT22;2949;50.778;7.094;2023-03-01T01:16:44;-3.90;99.90
5846;DHT22;2949;50.778;7.094;2023-03-01T01:19:10;-3.90;99.90
5846;DHT22;2949;50.778;7.094;2023-03-01T01:21:36;-3.90;99.90
5846;DHT22;2949;50.778;7.094;2023-03-01T01:24:04;-4.00;99.90
5846;DHT22;2949;50.778;7.094;2023-03-01T01:26:31;-4.10;99.90
5846;DHT22;2949;50.778;7.094;2023-03-01T01:28:58;-4.10;99.90
5846;DHT22;2949;50.778;7.094;2023-03-01T01:31:25;-4.00;99.90
5846;DHT22;2949;50.778;7.094;2023-03-01T01:33:51;-4.00;99.90
5846;DHT22;2949;50.778;7.094;2023-03-01T01:36:17;-4.10;99.90
5846;DHT22;2949;50.778;7.094;2023-03-01T01:38:43;-4.10;99.90
5846;DHT22;2949;50.778;7.094;2023-03-01T01:41:11;-4.20;99.90
5846;DHT22;2949;50.778;7.094;2023-03-01T01:43:39;-4.20;99.90
5846;DHT22;2949;50.778;7.094;2023-03-01T01:46:21;-4.30;99.90
5846;DHT22;2949;50.778;7.094;2023-03-01T01:49:04;-4.40;99.90
5846;DHT22;2949;50.778;7.094;2023-03-01T01:51:35;-4.40;99.90
5846;DHT22;2949;50.778;7.094;2023-03-01T01:54:14;-4.40;99.90
5846;DHT22;2949;50.778;7.094;2023-03-01T01:56:45;-4.40;99.90
5846;DHT22;2949;50.778;7.094;2023-03-01T01:59:13;-4.30;99.90
5846;DHT22;2949;50.778;7.094;2023-03-01T02:01:39;-4.30;99.90
5846;DHT22;2949;50.778;7.094;2023-03-01T02:04:05;-4.30;99.90
5846;DHT22;2949;50.778;7.094;2023-03-01T02:06:54;-4.40;99.90
5846;DHT22;2949;50.778;7.094;2023-03-01T02:09:23;-4.40;99.90
5846;DHT22;2949;50.778;7.094;2023-03-01T02:11:50;-4.40;99.90
5846;DHT22;2949;50.778;7.094;2023-03-01T02:14:16;-4.50;99.90
5846;DHT22;2949;50.778;7.094;2023-03-01T02:16:43;-4.50;99.90
5846;DHT22;2949;50.778;7.094;2023-03-01T02:19:17;-4.60;99.90
5846;DHT22;2949;50.778;7.094;2023-03-01T02:22:13;-4.50;99.90
5846;DHT22;2949;50.778;7.094;2023-03-01T02:27:46;-4.60;99.90
5846;DHT22;2949;50.778;7.094;2023-03-01T02:30:14;-4.60;99.90
5846;DHT22;2949;50.778;7.094;2023-03-01T02:32:40;-4.70;99.90
5846;DHT22;2949;50.778;7.094;2023-03-01T02:35:09;-4.70;99.90
5846;DHT22;2949;50.778;7.094;2023-03-01T02:37:36;-4.70;99.90
5846;DHT22;2949;50.778;7.094;2023-03-01T02:40:05;-4.70;99.90
5846;DHT22;2949;50.778;7.094;2023-03-01T02:42:36;-4.70;99.90
5846;DHT22;2949;50.778;7.094;2023-03-01T02:45:04;-4.70;99.90
5846;DHT22;2949;50.778;7.094;2023-03-01T02:47:30;-4.80;99.90
5846;DHT22;2949;50.778;7.094;2023-03-01T02:49:56;-4.80;99.90
5846;DHT22;2949;50.778;7.094;2023-03-01T02:52:53;-4.80;99.90
5846;DHT22;2949;50.778;7.094;2023-03-01T02:55:22;-4.90;99.90
5846;DHT22;2949;50.778;7.094;2023-03-01T02:57:48;-4.80;99.90
5846;DHT22;2949;50.778;7.094;2023-03-01T03:00:24;-4.80;99.90
5846;DHT22;2949;50.778;7.094;2023-03-01T03:02:53;-4.90;99.90
5846;DHT22;2949;50.778;7.094;2023-03-01T03:05:22;-5.00;99.90
5846;DHT22;2949;50.778;7.094;2023-03-01T03:07:49;-5.00;99.90
5846;DHT22;2949;50.778;7.094;2023-03-01T03:10:37;-5.10;99.90
5846;DHT22;2949;50.778;7.094;2023-03-01T03:13:05;-5.10;99.90
5846;DHT22;2949;50.778;7.094;2023-03-01T03:15:31;-5.00;99.90
5846;DHT22;2949;50.778;7.094;2023-03-01T03:18:01;-5.00;99.90
5846;DHT22;2949;50.778;7.094;2023-03-01T03:20:27;-4.90;99.90
5846;DHT22;2949;50.778;7.094;2023-03-01T03:22:54;-4.90;99.90
5846;DHT22;2949;50.778;7.094;2023-03-01T03:25:21;-4.90;99.90
5846;DHT22;2949;50.778;7.094;2023-03-01T03:27:49;-5.00;99.90
5846;DHT22;2949;50.778;7.094;2023-03-01T03:30:17;-5.00;99.90
5846;DHT22;2949;50.778;7.094;2023-03-01T03:32:45;-5.00;99.90
5846;DHT22;2949;50.778;7.094;2023-03-01T03:35:31;-5.10;99.90
5846;DHT22;2949;50.778;7.094;2023-03-01T03:37:58;-5.10;99.90
5846;DHT22;2949;50.778;7.094;2023-03-01T03:42:58;-5.10;99.90
5846;DHT22;2949;50.778;7.094;2023-03-01T03:45:24;-5.10;99.90
5846;DHT22;2949;50.778;7.094;2023-03-01T03:47:49;-5.10;99.90
5846;DHT22;2949;50.778;7.094;2023-03-01T03:50:16;-5.10;99.90
5846;DHT22;2949;50.778;7.094;2023-03-01T03:52:42;-5.10;99.90
5846;DHT22;2949;50.778;7.094;2023-03-01T03:55:10;-5.10;99.90
5846;DHT22;2949;50.778;7.094;2023-03-01T03:57:36;-5.10;99.90
5846;DHT22;2949;50.778;7.094;2023-03-01T04:00:03;-5.10;99.90
5846;DHT22;2949;50.778;7.094;2023-03-01T04:02:30;-5.20;99.90
5846;DHT22;2949;50.778;7.094;2023-03-01T04:04:56;-5.20;99.90
5846;DHT22;2949;50.778;7.094;2023-03-01T04:07:21;-5.30;99.90
5846;DHT22;2949;50.778;7.094;2023-03-01T04:09:47;-5.30;99.90
5846;DHT22;2949;50.778;7.094;2023-03-01T04:12:12;-5.40;99.90
5846;DHT22;2949;50.778;7.094;2023-03-01T04:14:38;-5.40;99.90
5846;DHT22;2949;50.778;7.094;2023-03-01T04:17:04;-5.40;99.90
5846;DHT22;2949;50.778;7.094;2023-03-01T04:19:31;-5.50;99.90
5846;DHT22;2949;50.778;7.094;2023-03-01T04:22:02;-5.50;99.90
5846;DHT22;2949;50.778;7.094;2023-03-01T04:24:33;-5.60;99.90
5846;DHT22;2949;50.778;7.094;2023-03-01T04:26:58;-5.60;99.90
5846;DHT22;2949;50.778;7.094;2023-03-01T04:29:24;-5.60;99.90
5846;DHT22;2949;50.778;7.094;2023-03-01T04:31:49;-5.60;99.90
5846;DHT22;2949;50.778;7.094;2023-03-01T04:34:15;-5.60;99.90
5846;DHT22;2949;50.778;7.094;2023-03-01T04:36:40;-5.60;99.90
5846;DHT22;2949;50.778;7.094;2023-03-01T04:39:06;-5.60;99.90
5846;DHT22;2949;50.778;7.094;2023-03-01T04:41:38;-5.60;99.90
5846;DHT22;2949;50.778;7.094;2023-03-01T04:44:08;-5.60;99.90
5846;DHT22;2949;50.778;7.094;2023-03-01T04:46:35;-5.60;99.90
5846;DHT22;2949;50.778;7.094;2023-03-01T04:49:01;-5.50;99.90
5846;DHT22;2949;50.778;7.094;2023-03-01T04:51:27;-5.60;99.90
5846;DHT22;2949;50.778;7.094;2023-03-01T04:53:53;-5.60;99.90
5846;DHT22;2949;50.778;7.094;2023-03-01T04:56:18;-5.60;99.90
5846;DHT22;2949;50.778;7.094;2023-03-01T04:58:44;-5.60;99.90
5846;DHT22;2949;50.778;7.094;2023-03-01T05:01:11;-5.50;99.90
5846;DHT22;2949;50.778;7.094;2023-03-01T05:03:47;-5.50;99.90
5846;DHT22;2949;50.778;7.094;2023-03-01T05:06:14;-5.60;99.90
5846;DHT22;2949;50.778;7.094;2023-03-01T05:08:40;-5.70;99.90
5846;DHT22;2949;50.778;7.094;2023-03-01T05:11:07;-5.70;99.90
5846;DHT22;2949;50.778;7.094;2023-03-01T05:13:34;-5.60;99.90
5846;DHT22;2949;50.778;7.094;2023-03-01T05:16:01;-5.70;99.90
5846;DHT22;2949;50.778;7.094;2023-03-01T05:18:29;-5.70;99.90
5846;DHT22;2949;50.778;7.094;2023-03-01T05:21:00;-5.60;99.90
5846;DHT22;2949;50.778;7.094;2023-03-01T05:23:26;-5.60;99.90
5846;DHT22;2949;50.778;7.094;2023-03-01T05:25:52;-5.70;99.90
5846;DHT22;2949;50.778;7.094;2023-03-01T05:28:19;-5.60;99.90
5846;DHT22;2949;50.778;7.094;2023-03-01T05:30:45;-5.70;99.90
5846;DHT22;2949;50.778;7.094;2023-03-01T05:33:11;-5.80;99.90
5846;DHT22;2949;50.778;7.094;2023-03-01T05:35:41;-5.80;99.90
5846;DHT22;2949;50.778;7.094;2023-03-01T05:38:08;-5.90;99.90
5846;DHT22;2949;50.778;7.094;2023-03-01T05:40:34;-5.90;99.90
5846;DHT22;2949;50.778;7.094;2023-03-01T05:43:00;-5.90;99.90
5846;DHT22;2949;50.778;7.094;2023-03-01T05:45:27;-6.00;99.90
5846;DHT22;2949;50.778;7.094;2023-03-01T05:47:53;-6.00;99.90
5846;DHT22;2949;50.778;7.094;2023-03-01T05:50:22;-6.00;99.90
5846;DHT22;2949;50.778;7.094;2023-03-01T05:52:50;-6.00;99.90
5846;DHT22;2949;50.778;7.094;2023-03-01T05:55:17;-5.90;99.90
5846;DHT22;2949;50.778;7.094;2023-03-01T05:57:43;-5.80;99.90
5846;DHT22;2949;50.778;7.094;2023-03-01T06:00:10;-5.80;99.90
5846;DHT22;2949;50.778;7.094;2023-03-01T06:02:36;-5.90;99.90
5846;DHT22;2949;50.778;7.094;2023-03-01T06:05:04;-5.90;99.90
5846;DHT22;2949;50.778;7.094;2023-03-01T06:07:29;-5.80;99.90
5846;DHT22;2949;50.778;7.094;2023-03-01T06:09:55;-5.80;99.90
5846;DHT22;2949;50.778;7.094;2023-03-01T06:12:20;-5.90;99.90
5846;DHT22;2949;50.778;7.094;2023-03-01T06:14:46;-6.00;99.90
5846;DHT22;2949;50.778;7.094;2023-03-01T06:17:13;-6.00;99.90
5846;DHT22;2949;50.778;7.094;2023-03-01T06:19:38;-6.10;99.90
5846;DHT22;2949;50.778;7.094;2023-03-01T06:22:04;-5.80;99.90
5846;DHT22;2949;50.778;7.094;2023-03-01T06:24:30;-6.00;99.90
5846;DHT22;2949;50.778;7.094;2023-03-01T06:26:55;-6.00;99.90
5846;DHT22;2949;50.778;7.094;2023-03-01T06:29:21;-5.90;99.90
5846;DHT22;2949;50.778;7.094;2023-03-01T06:31:48;-5.90;99.90
5846;DHT22;2949;50.778;7.094;2023-03-01T06:34:14;-5.90;99.90
5846;DHT22;2949;50.778;7.094;2023-03-01T06:36:40;-5.90;99.90
5846;DHT22;2949;50.778;7.094;2023-03-01T06:39:06;-5.90;99.90
5846;DHT22;2949;50.778;7.094;2023-03-01T06:41:32;-5.70;99.90
5846;DHT22;2949;50.778;7.094;2023-03-01T06:43:59;-5.70;99.90
5846;DHT22;2949;50.778;7.094;2023-03-01T06:46:24;-5.60;99.90
5846;DHT22;2949;50.778;7.094;2023-03-01T06:48:50;-5.50;99.90
5846;DHT22;2949;50.778;7.094;2023-03-01T06:51:15;-5.40;99.90
5846;DHT22;2949;50.778;7.094;2023-03-01T06:53:41;-5.20;99.90
5846;DHT22;2949;50.778;7.094;2023-03-01T06:56:06;-5.10;99.90
5846;DHT22;2949;50.778;7.094;2023-03-01T06:58:32;-5.00;99.90
5846;DHT22;2949;50.778;7.094;2023-03-01T07:00:57;-4.80;99.90
5846;DHT22;2949;50.778;7.094;2023-03-01T07:03:23;-4.60;99.90
5846;DHT22;2949;50.778;7.094;2023-03-01T07:05:50;-4.40;99.90
5846;DHT22;2949;50.778;7.094;2023-03-01T07:08:18;-4.20;99.90
5846;DHT22;2949;50.778;7.094;2023-03-01T07:10:43;-3.90;99.90
5846;DHT22;2949;50.778;7.094;2023-03-01T07:13:09;-2.80;99.90
5846;DHT22;2949;50.778;7.094;2023-03-01T07:15:34;-0.90;99.90
5846;DHT22;2949;50.778;7.094;2023-03-01T07:18:00;1.10;99.90
5846;DHT22;2949;50.778;7.094;2023-03-01T07:20:25;2.90;99.90
5846;DHT22;2949;50.778;7.094;2023-03-01T07:22:52;3.10;99.90
5846;DHT22;2949;50.778;7.094;2023-03-01T07:25:17;3.90;99.90
5846;DHT22;2949;50.778;7.094;2023-03-01T07:27:43;5.20;99.90
5846;DHT22;2949;50.778;7.094;2023-03-01T07:30:09;6.70;99.90
5846;DHT22;2949;50.778;7.094;2023-03-01T07:32:35;8.00;99.90
5846;DHT22;2949;50.778;7.094;2023-03-01T07:35:00;9.10;99.90
5846;DHT22;2949;50.778;7.094;2023-03-01T07:37:26;9.80;96.60
5846;DHT22;2949;50.778;7.094;2023-03-01T07:39:51;10.30;92.50
5846;DHT22;2949;50.778;7.094;2023-03-01T07:42:17;10.20;93.40
5846;DHT22;2949;50.778;7.094;2023-03-01T07:44:42;9.20;91.50
5846;DHT22;2949;50.778;7.094;2023-03-01T07:47:08;8.60;93.40
5846;DHT22;2949;50.778;7.094;2023-03-01T07:49:34;8.40;95.80
5846;DHT22;2949;50.778;7.094;2023-03-01T07:51:59;7.70;95.00
5846;DHT22;2949;50.778;7.094;2023-03-01T07:54:26;7.20;94.70
5846;DHT22;2949;50.778;7.094;2023-03-01T07:56:51;6.70;95.80
5846;DHT22;2949;50.778;7.094;2023-03-01T07:59:17;6.50;96.60
5846;DHT22;2949;50.778;7.094;2023-03-01T08:01:43;6.60;97.30
5846;DHT22;2949;50.778;7.094;2023-03-01T08:04:08;7.20;97.70
5846;DHT22;2949;50.778;7.094;2023-03-01T08:06:35;7.90;96.70
5846;DHT22;2949;50.778;7.094;2023-03-01T08:09:01;8.80;93.80
5846;DHT22;2949;50.778;7.094;2023-03-01T08:11:27;9.60;91.70
5846;DHT22;2949;50.778;7.094;2023-03-01T08:13:55;10.00;88.10
5846;DHT22;2949;50.778;7.094;2023-03-01T08:16:22;10.70;87.10
5846;DHT22;2949;50.778;7.094;2023-03-01T08:18:48;11.80;82.50
5846;DHT22;2949;50.778;7.094;2023-03-01T08:21:15;12.90;77.10
5846;DHT22;2949;50.778;7.094;2023-03-01T08:23:42;13.50;69.60
5846;DHT22;2949;50.778;7.094;2023-03-01T08:26:14;13.60;67.80
5846;DHT22;2949;50.778;7.094;2023-03-01T08:28:41;13.60;66.30
5846;DHT22;2949;50.778;7.094;2023-03-01T08:33:39;15.00;62.80
5846;DHT22;2949;50.778;7.094;2023-03-01T08:36:05;15.80;58.60
5846;DHT22;2949;50.778;7.094;2023-03-01T08:38:32;16.30;56.70
5846;DHT22;2949;50.778;7.094;2023-03-01T08:41:02;16.20;53.20
5846;DHT22;2949;50.778;7.094;2023-03-01T08:43:28;15.20;51.90
5846;DHT22;2949;50.778;7.094;2023-03-01T08:45:53;14.10;52.60
5846;DHT22;2949;50.778;7.094;2023-03-01T08:48:19;13.80;52.40
5846;DHT22;2949;50.778;7.094;2023-03-01T08:50:44;13.60;54.00
5846;DHT22;2949;50.778;7.094;2023-03-01T08:53:10;14.50;54.20
5846;DHT22;2949;50.778;7.094;2023-03-01T08:55:35;15.50;50.90
5846;DHT22;2949;50.778;7.094;2023-03-01T08:58:01;16.10;51.30
5846;DHT22;2949;50.778;7.094;2023-03-01T09:00:26;16.60;49.30
5846;DHT22;2949;50.778;7.094;2023-03-01T09:02:52;17.00;46.40
5846;DHT22;2949;50.778;7.094;2023-03-01T09:05:17;17.10;47.60
5846;DHT22;2949;50.778;7.094;2023-03-01T09:07:43;17.00;45.70
5846;DHT22;2949;50.778;7.094;2023-03-01T09:10:09;16.60;44.50
5846;DHT22;2949;50.778;7.094;2023-03-01T09:12:35;16.60;45.40
5846;DHT22;2949;50.778;7.094;2023-03-01T09:15:00;16.60;45.20
5846;DHT22;2949;50.778;7.094;2023-03-01T09:17:26;16.70;44.70
5846;DHT22;2949;50.778;7.094;2023-03-01T09:19:51;17.00;44.70
5846;DHT22;2949;50.778;7.094;2023-03-01T09:22:16;17.50;43.80
5846;DHT22;2949;50.778;7.094;2023-03-01T09:24:42;17.70;44.20
5846;DHT22;2949;50.778;7.094;2023-03-01T09:27:08;17.90;44.40
5846;DHT22;2949;50.778;7.094;2023-03-01T09:29:38;18.10;44.00
5846;DHT22;2949;50.778;7.094;2023-03-01T09:32:03;18.40;42.70
5846;DHT22;2949;50.778;7.094;2023-03-01T09:34:29;18.10;43.50
5846;DHT22;2949;50.778;7.094;2023-03-01T09:36:54;18.50;43.00
5846;DHT22;2949;50.778;7.094;2023-03-01T09:39:22;19.00;41.50
5846;DHT22;2949;50.778;7.094;2023-03-01T09:46:57;19.00;42.10
5846;DHT22;2949;50.778;7.094;2023-03-01T09:49:29;18.60;42.40
5846;DHT22;2949;50.778;7.094;2023-03-01T09:52:03;18.90;42.00
5846;DHT22;2949;50.778;7.094;2023-03-01T09:54:34;18.90;41.40
5846;DHT22;2949;50.778;7.094;2023-03-01T09:57:10;18.70;38.70
5846;DHT22;2949;50.778;7.094;2023-03-01T09:59:55;17.90;38.90
5846;DHT22;2949;50.778;7.094;2023-03-01T10:02:49;17.40;40.20
5846;DHT22;2949;50.778;7.094;2023-03-01T10:10:38;17.60;40.20
5846;DHT22;2949;50.778;7.094;2023-03-01T10:13:37;17.50;39.60
5846;DHT22;2949;50.778;7.094;2023-03-01T10:16:16;17.20;40.40
5846;DHT22;2949;50.778;7.094;2023-03-01T10:18:46;17.10;39.80
5846;DHT22;2949;50.778;7.094;2023-03-01T10:21:18;16.80;39.80
5846;DHT22;2949;50.778;7.094;2023-03-01T10:23:45;16.50;39.90
5846;DHT22;2949;50.778;7.094;2023-03-01T10:29:14;15.70;40.40
5846;DHT22;2949;50.778;7.094;2023-03-01T10:31:49;15.10;41.40
5846;DHT22;2949;50.778;7.094;2023-03-01T10:34:21;15.20;41.50
5846;DHT22;2949;50.778;7.094;2023-03-01T10:36:50;14.80;41.90
5846;DHT22;2949;50.778;7.094;2023-03-01T10:39:22;15.10;42.50
5846;DHT22;2949;50.778;7.094;2023-03-01T10:41:58;15.70;41.40
5846;DHT22;2949;50.778;7.094;2023-03-01T10:44:45;15.70;40.90
5846;DHT22;2949;50.778;7.094;2023-03-01T10:47:26;16.00;41.40
5846;DHT22;2949;50.778;7.094;2023-03-01T10:49:56;16.20;40.30
5846;DHT22;2949;50.778;7.094;2023-03-01T10:52:40;16.40;39.80
5846;DHT22;2949;50.778;7.094;2023-03-01T10:57:38;16.20;40.30
5846;DHT22;2949;50.778;7.094;2023-03-01T11:00:25;16.40;39.70
5846;DHT22;2949;50.778;7.094;2023-03-01T11:03:04;16.40;38.60
5846;DHT22;2949;50.778;7.094;2023-03-01T11:05:34;15.90;38.70
5846;DHT22;2949;50.778;7.094;2023-03-01T11:08:01;15.70;39.50
5846;DHT22;2949;50.778;7.094;2023-03-01T11:10:36;15.90;39.20
5846;DHT22;2949;50.778;7.094;2023-03-01T11:13:16;15.90;38.40
5846;DHT22;2949;50.778;7.094;2023-03-01T11:15:43;15.60;38.60
5846;DHT22;2949;50.778;7.094;2023-03-01T11:18:22;15.30;39.00
5846;DHT22;2949;50.778;7.094;2023-03-01T11:20:50;14.70;39.50
5846;DHT22;2949;50.778;7.094;2023-03-01T11:23:17;13.30;40.20
5846;DHT22;2949;50.778;7.094;2023-03-01T11:25:49;11.80;43.20
5846;DHT22;2949;50.778;7.094;2023-03-01T11:28:19;10.70;45.20
5846;DHT22;2949;50.778;7.094;2023-03-01T11:31:02;9.80;48.20
5846;DHT22;2949;50.778;7.094;2023-03-01T11:38:39;8.70;53.20
5846;DHT22;2949;50.778;7.094;2023-03-01T11:41:14;8.40;53.80
5846;DHT22;2949;50.778;7.094;2023-03-01T11:43:57;8.20;55.50
5846;DHT22;2949;50.778;7.094;2023-03-01T11:51:48;8.20;56.90
5846;DHT22;2949;50.778;7.094;2023-03-01T11:54:28;8.20;55.90
5846;DHT22;2949;50.778;7.094;2023-03-01T11:57:17;8.20;57.00
5846;DHT22;2949;50.778;7.094;2023-03-01T12:05:41;8.00;59.10
5846;DHT22;2949;50.778;7.094;2023-03-01T12:08:27;8.10;61.10
5846;DHT22;2949;50.778;7.094;2023-03-01T12:11:02;8.10;62.50
5846;DHT22;2949;50.778;7.094;2023-03-01T12:13:51;8.10;62.00
5846;DHT22;2949;50.778;7.094;2023-03-01T12:19:30;8.30;59.20
5846;DHT22;2949;50.778;7.094;2023-03-01T12:22:29;8.30;60.40
5846;DHT22;2949;50.778;7.094;2023-03-01T12:25:18;8.30;57.80
5846;DHT22;2949;50.778;7.094;2023-03-01T12:33:26;8.10;58.80
5846;DHT22;2949;50.778;7.094;2023-03-01T12:38:42;8.00;61.00
5846;DHT22;2949;50.778;7.094;2023-03-01T12:44:30;8.10;55.90
5846;DHT22;2949;50.778;7.094;2023-03-01T12:47:16;8.10;56.60
5846;DHT22;2949;50.778;7.094;2023-03-01T12:49:59;8.20;55.10
5846;DHT22;2949;50.778;7.094;2023-03-01T12:52:36;8.10;54.60
5846;DHT22;2949;50.778;7.094;2023-03-01T12:55:17;8.10;57.50
5846;DHT22;2949;50.778;7.094;2023-03-01T12:58:13;8.10;60.80
5846;DHT22;2949;50.778;7.094;2023-03-01T13:03:34;8.10;63.80
5846;DHT22;2949;50.778;7.094;2023-03-01T13:06:21;8.20;62.70
5846;DHT22;2949;50.778;7.094;2023-03-01T13:09:05;8.20;62.30
5846;DHT22;2949;50.778;7.094;2023-03-01T13:11:36;8.20;63.70
5846;DHT22;2949;50.778;7.094;2023-03-01T13:16:55;8.20;58.50
5846;DHT22;2949;50.778;7.094;2023-03-01T13:19:25;8.20;59.40
5846;DHT22;2949;50.778;7.094;2023-03-01T13:21:53;8.20;60.40
5846;DHT22;2949;50.778;7.094;2023-03-01T13:24:38;8.20;58.80
5846;DHT22;2949;50.778;7.094;2023-03-01T13:29:56;8.30;59.80
5846;DHT22;2949;50.778;7.094;2023-03-01T13:32:42;8.40;60.30
5846;DHT22;2949;50.778;7.094;2023-03-01T13:37:40;8.40;58.50
5846;DHT22;2949;50.778;7.094;2023-03-01T13:42:49;8.40;56.90
5846;DHT22;2949;50.778;7.094;2023-03-01T13:45:37;8.40;58.10
5846;DHT22;2949;50.778;7.094;2023-03-01T13:48:10;8.40;55.40
5846;DHT22;2949;50.778;7.094;2023-03-01T13:50:46;8.40;57.00
5846;DHT22;2949;50.778;7.094;2023-03-01T13:53:25;8.50;56.10
5846;DHT22;2949;50.778;7.094;2023-03-01T13:55:56;8.50;56.50
5846;DHT22;2949;50.778;7.094;2023-03-01T13:58:30;8.60;56.00
5846;DHT22;2949;50.778;7.094;2023-03-01T14:01:01;8.60;56.80
5846;DHT22;2949;50.778;7.094;2023-03-01T14:03:29;8.60;55.10
5846;DHT22;2949;50.778;7.094;2023-03-01T14:06:08;8.60;54.50
5846;DHT22;2949;50.778;7.094;2023-03-01T14:08:37;8.60;55.00
5846;DHT22;2949;50.778;7.094;2023-03-01T14:14:19;8.70;54.40
5846;DHT22;2949;50.778;7.094;2023-03-01T14:19:45;8.80;53.70
5846;DHT22;2949;50.778;7.094;2023-03-01T14:24:48;8.90;51.90
5846;DHT22;2949;50.778;7.094;2023-03-01T14:27:16;9.00;50.70
5846;DHT22;2949;50.778;7.094;2023-03-01T14:29:43;8.90;51.10
5846;DHT22;2949;50.778;7.094;2023-03-01T14:32:21;8.80;51.20
5846;DHT22;2949;50.778;7.094;2023-03-01T14:34:50;8.90;51.80
5846;DHT22;2949;50.778;7.094;2023-03-01T14:37:31;8.90;53.40
5846;DHT22;2949;50.778;7.094;2023-03-01T14:39:59;8.80;54.70
5846;DHT22;2949;50.778;7.094;2023-03-01T14:42:28;8.80;54.90
5846;DHT22;2949;50.778;7.094;2023-03-01T14:44:55;8.80;55.20
5846;DHT22;2949;50.778;7.094;2023-03-01T14:47:27;8.80;54.60
5846;DHT22;2949;50.778;7.094;2023-03-01T14:50:00;8.80;54.40
5846;DHT22;2949;50.778;7.094;2023-03-01T14:52:40;8.80;53.20
5846;DHT22;2949;50.778;7.094;2023-03-01T14:55:17;8.80;55.20
5846;DHT22;2949;50.778;7.094;2023-03-01T14:57:46;8.70;59.80
5846;DHT22;2949;50.778;7.094;2023-03-01T15:00:22;8.70;61.40
5846;DHT22;2949;50.778;7.094;2023-03-01T15:02:50;8.60;60.30
5846;DHT22;2949;50.778;7.094;2023-03-01T15:05:27;8.60;60.20
5846;DHT22;2949;50.778;7.094;2023-03-01T15:07:54;8.50;62.60
5846;DHT22;2949;50.778;7.094;2023-03-01T15:10:35;8.50;63.40
5846;DHT22;2949;50.778;7.094;2023-03-01T15:13:12;8.50;64.60
5846;DHT22;2949;50.778;7.094;2023-03-01T15:15:41;8.50;64.20
5846;DHT22;2949;50.778;7.094;2023-03-01T15:18:17;8.50;62.50
5846;DHT22;2949;50.778;7.094;2023-03-01T15:20:43;8.50;60.60
5846;DHT22;2949;50.778;7.094;2023-03-01T15:23:29;8.50;60.60
5846;DHT22;2949;50.778;7.094;2023-03-01T15:25:56;8.50;58.70
5846;DHT22;2949;50.778;7.094;2023-03-01T15:28:34;8.50;58.80
5846;DHT22;2949;50.778;7.094;2023-03-01T15:31:23;8.40;59.00
5846;DHT22;2949;50.778;7.094;2023-03-01T15:33:49;8.40;58.50
5846;DHT22;2949;50.778;7.094;2023-03-01T15:36:36;8.40;58.80
5846;DHT22;2949;50.778;7.094;2023-03-01T15:39:04;8.30;60.40
5846;DHT22;2949;50.778;7.094;2023-03-01T15:41:51;8.30;60.50
5846;DHT22;2949;50.778;7.094;2023-03-01T15:44:28;8.20;60.60
5846;DHT22;2949;50.778;7.094;2023-03-01T15:46:54;8.20;61.20
5846;DHT22;2949;50.778;7.094;2023-03-01T15:49:40;8.10;62.60
5846;DHT22;2949;50.778;7.094;2023-03-01T15:54:59;7.90;67.90
5846;DHT22;2949;50.778;7.094;2023-03-01T15:57:26;7.80;69.80
5846;DHT22;2949;50.778;7.094;2023-03-01T15:59:51;7.70;70.70
5846;DHT22;2949;50.778;7.094;2023-03-01T16:02:17;7.60;71.10
5846;DHT22;2949;50.778;7.094;2023-03-01T16:04:43;7.50;72.60
5846;DHT22;2949;50.778;7.094;2023-03-01T16:07:09;7.50;71.50
5846;DHT22;2949;50.778;7.094;2023-03-01T16:09:35;7.40;71.80
5846;DHT22;2949;50.778;7.094;2023-03-01T16:12:00;7.30;73.60
5846;DHT22;2949;50.778;7.094;2023-03-01T16:14:27;7.30;74.20
5846;DHT22;2949;50.778;7.094;2023-03-01T16:16:52;7.20;75.50
5846;DHT22;2949;50.778;7.094;2023-03-01T16:19:18;7.10;77.10
5846;DHT22;2949;50.778;7.094;2023-03-01T16:21:43;7.00;78.70
5846;DHT22;2949;50.778;7.094;2023-03-01T16:24:12;6.90;79.50
5846;DHT22;2949;50.778;7.094;2023-03-01T16:26:38;6.90;78.80
5846;DHT22;2949;50.778;7.094;2023-03-01T16:29:04;6.80;79.50
5846;DHT22;2949;50.778;7.094;2023-03-01T16:31:30;6.80;79.50
5846;DHT22;2949;50.778;7.094;2023-03-01T16:33:57;6.70;79.70
5846;DHT22;2949;50.778;7.094;2023-03-01T16:36:25;6.60;80.60
5846;DHT22;2949;50.778;7.094;2023-03-01T16:38:51;6.60;82.20
5846;DHT22;2949;50.778;7.094;2023-03-01T16:41:19;6.50;81.80
5846;DHT22;2949;50.778;7.094;2023-03-01T16:43:45;6.40;80.80
5846;DHT22;2949;50.778;7.094;2023-03-01T16:46:14;6.40;78.20
5846;DHT22;2949;50.778;7.094;2023-03-01T16:48:40;6.50;75.40
5846;DHT22;2949;50.778;7.094;2023-03-01T16:51:06;6.60;73.80
5846;DHT22;2949;50.778;7.094;2023-03-01T16:53:33;6.60;73.80
5846;DHT22;2949;50.778;7.094;2023-03-01T16:56:01;6.50;74.70
5846;DHT22;2949;50.778;7.094;2023-03-01T16:58:27;6.40;77.50
5846;DHT22;2949;50.778;7.094;2023-03-01T17:00:53;6.20;79.10
5846;DHT22;2949;50.778;7.094;2023-03-01T17:03:20;6.00;80.20
5846;DHT22;2949;50.778;7.094;2023-03-01T17:05:47;5.80;81.30
5846;DHT22;2949;50.778;7.094;2023-03-01T17:08:12;5.60;83.10
5846;DHT22;2949;50.778;7.094;2023-03-01T17:10:38;5.40;84.20
5846;DHT22;2949;50.778;7.094;2023-03-01T17:13:03;5.30;86.10
5846;DHT22;2949;50.778;7.094;2023-03-01T17:15:29;5.00;87.30
5846;DHT22;2949;50.778;7.094;2023-03-01T17:17:55;5.00;88.70
5846;DHT22;2949;50.778;7.094;2023-03-01T17:20:21;4.90;90.00
5846;DHT22;2949;50.778;7.094;2023-03-01T17:22:46;4.80;90.20
5846;DHT22;2949;50.778;7.094;2023-03-01T17:25:12;4.70;90.60
5846;DHT22;2949;50.778;7.094;2023-03-01T17:27:38;4.60;91.10
5846;DHT22;2949;50.778;7.094;2023-03-01T17:30:05;4.50;91.90
5846;DHT22;2949;50.778;7.094;2023-03-01T17:32:31;4.30;92.30
5846;DHT22;2949;50.778;7.094;2023-03-01T17:34:57;4.20;92.90
5846;DHT22;2949;50.778;7.094;2023-03-01T17:37:22;4.10;93.20
5846;DHT22;2949;50.778;7.094;2023-03-01T17:39:48;4.00;93.60
5846;DHT22;2949;50.778;7.094;2023-03-01T17:42:13;3.90;94.20
5846;DHT22;2949;50.778;7.094;2023-03-01T17:44:39;3.90;95.10